PWSweather.com
Personal Weather Stations
Station Observations
01979
Ravne Pri CerknemSI 5282

Ravne Pri CerknemSI 5282

Lat: 46.1213916, Lon: 13.952774299999987

Elevation: 2244.094488

Station Type: Techo Line WS2307

www.vremenska.postaja.andre.si/

High Low Average
Temperature 52.2°F11.2°C 32.0°F0.0°C 43.3°F6.3°C
Dew Point 32.8°F0.4°C 30.8°F-0.7°C 31.8°F-0.1°C
Winds 6.5 mph 10.5 kmh Calm Calm 1.0 mph NE1.6 kmh NE
Wind Gusts 7.2 mph11.6 kmh -- 1.0 mph1.6 kmh
Humidity 73% 0% 63%
Pressure 30.27 in1025.1 mb 30.16 in1021.3 mb -
Precipitation 0.00 in0.0 mm - -
Hour Temp Dew Point Humidity Winds Wind Gusts Pressure Precip Precip Rate Daily Precip Total
12:00 AM 52.2°F11.2°C 32.0°F0.0°C 46% Calm Calm -- 30.27 in1025.1 mb 0.00 in0.0 mm 0.00 in0.0 mm 0.00 in0.0 mm
12:10 AM 52.2°F11.2°C 32.0°F0.0°C 46% Calm Calm -- 30.27 in1025.1 mb 0.00 in0.0 mm 0.00 in0.0 mm 0.00 in0.0 mm
12:20 AM 52.2°F11.2°C 32.0°F0.0°C 46% Calm Calm -- 30.27 in1025.1 mb 0.00 in0.0 mm 0.00 in0.0 mm 0.00 in0.0 mm
12:30 AM 52.2°F11.2°C 32.0°F0.0°C 46% Calm Calm -- 30.27 in1025.1 mb 0.00 in0.0 mm 0.00 in0.0 mm 0.00 in0.0 mm
12:40 AM 52.2°F11.2°C 32.0°F0.0°C 46% Calm Calm -- 30.26 in1024.7 mb 0.00 in0.0 mm 0.00 in0.0 mm 0.00 in0.0 mm
12:50 AM 52.2°F11.2°C 32.0°F0.0°C 46% Calm Calm -- 30.27 in1025.1 mb 0.00 in0.0 mm 0.00 in0.0 mm 0.00 in0.0 mm
01:00 AM 52.2°F11.2°C 32.0°F0.0°C 46% Calm Calm -- 30.27 in1025.1 mb 0.00 in0.0 mm 0.00 in0.0 mm 0.00 in0.0 mm
01:10 AM 52.2°F11.2°C 32.0°F0.0°C 46% Calm Calm -- 30.25 in1024.4 mb 0.00 in0.0 mm 0.00 in0.0 mm 0.00 in0.0 mm
01:20 AM 52.2°F11.2°C 32.0°F0.0°C 46% Calm Calm -- 30.25 in1024.4 mb 0.00 in0.0 mm 0.00 in0.0 mm 0.00 in0.0 mm
01:30 AM 52.2°F11.2°C 32.0°F0.0°C 46% Calm Calm -- 30.25 in1024.4 mb 0.00 in0.0 mm 0.00 in0.0 mm 0.00 in0.0 mm
01:40 AM 52.2°F11.2°C 32.0°F0.0°C 46% Calm Calm -- 30.25 in1024.4 mb 0.00 in0.0 mm 0.00 in0.0 mm 0.00 in0.0 mm
01:50 AM 52.2°F11.2°C 32.0°F0.0°C 46% Calm Calm -- 30.24 in1024.0 mb 0.00 in0.0 mm 0.00 in0.0 mm 0.00 in0.0 mm
02:00 AM 52.2°F11.2°C 32.0°F0.0°C 46% Calm Calm -- 30.24 in1024.0 mb 0.00 in0.0 mm 0.00 in0.0 mm 0.00 in0.0 mm
02:03 AM 32.0°F0.0°C 32.0°F0.0°C 0% Calm Calm -- 30.25 in1024.4 mb 0.00 in0.0 mm 0.00 in0.0 mm 0.00 in0.0 mm
02:10 AM 40.1°F4.5°C 31.1°F-0.5°C 70% Calm Calm -- 30.24 in1024.0 mb 0.00 in0.0 mm 0.00 in0.0 mm 0.00 in0.0 mm
02:20 AM 39.7°F4.3°C 30.8°F-0.7°C 70% Calm Calm -- 30.24 in1024.0 mb 0.00 in0.0 mm 0.00 in0.0 mm 0.00 in0.0 mm
02:30 AM 39.6°F4.2°C 30.9°F-0.6°C 71% Calm Calm -- 30.23 in1023.7 mb 0.00 in0.0 mm 0.00 in0.0 mm 0.00 in0.0 mm
02:40 AM 39.6°F4.2°C 30.9°F-0.6°C 71% Calm Calm -- 30.23 in1023.7 mb 0.00 in0.0 mm 0.00 in0.0 mm 0.00 in0.0 mm
02:50 AM 39.6°F4.2°C 30.9°F-0.6°C 71% Calm Calm -- 30.22 in1023.4 mb 0.00 in0.0 mm 0.00 in0.0 mm 0.00 in0.0 mm
03:00 AM 39.6°F4.2°C 30.9°F-0.6°C 71% Calm Calm -- 30.22 in1023.4 mb 0.00 in0.0 mm 0.00 in0.0 mm 0.00 in0.0 mm
03:10 AM 39.6°F4.2°C 30.9°F-0.6°C 71% Calm Calm -- 30.22 in1023.4 mb 0.00 in0.0 mm 0.00 in0.0 mm 0.00 in0.0 mm
03:20 AM 39.6°F4.2°C 30.9°F-0.6°C 71% Calm Calm -- 30.21 in1023.0 mb 0.00 in0.0 mm 0.00 in0.0 mm 0.00 in0.0 mm
03:30 AM 41.2°F5.1°C 32.8°F0.4°C 72% 6.5 mph N10.5 kmh N 6.5 mph10.5 kmh 30.21 in1023.0 mb 0.00 in0.0 mm 0.00 in0.0 mm 0.00 in0.0 mm
03:40 AM 40.8°F4.9°C 32.5°F0.3°C 72% 6.5 mph N10.5 kmh N 6.5 mph10.5 kmh 30.20 in1022.7 mb 0.00 in0.0 mm 0.00 in0.0 mm 0.00 in0.0 mm
03:50 AM 40.6°F4.8°C 32.0°F0.0°C 71% 6.5 mph N10.5 kmh N 6.5 mph10.5 kmh 30.20 in1022.7 mb 0.00 in0.0 mm 0.00 in0.0 mm 0.00 in0.0 mm
04:00 AM 40.8°F4.9°C 32.1°F0.1°C 71% 3.3 mph N5.3 kmh N 6.5 mph10.5 kmh 30.20 in1022.7 mb 0.00 in0.0 mm 0.00 in0.0 mm 0.00 in0.0 mm
04:10 AM 40.8°F4.9°C 32.5°F0.3°C 72% Calm Calm -- 30.20 in1022.7 mb 0.00 in0.0 mm 0.00 in0.0 mm 0.00 in0.0 mm
04:20 AM 40.8°F4.9°C 32.5°F0.3°C 72% Calm Calm -- 30.19 in1022.4 mb 0.00 in0.0 mm 0.00 in0.0 mm 0.00 in0.0 mm
04:30 AM 40.6°F4.8°C 32.7°F0.4°C 73% Calm Calm -- 30.19 in1022.4 mb 0.00 in0.0 mm 0.00 in0.0 mm 0.00 in0.0 mm
04:40 AM 40.1°F4.5°C 32.1°F0.1°C 73% Calm Calm -- 30.19 in1022.4 mb 0.00 in0.0 mm 0.00 in0.0 mm 0.00 in0.0 mm
04:50 AM 39.9°F4.4°C 32.0°F0.0°C 73% Calm Calm -- 30.19 in1022.4 mb 0.00 in0.0 mm 0.00 in0.0 mm 0.00 in0.0 mm
05:00 AM 39.9°F4.4°C 32.0°F0.0°C 73% Calm Calm -- 30.20 in1022.7 mb 0.00 in0.0 mm 0.00 in0.0 mm 0.00 in0.0 mm
05:10 AM 40.3°F4.6°C 32.0°F0.0°C 72% 1.3 mph NNW2.1 kmh NNW 3.8 mph6.1 kmh 30.19 in1022.4 mb 0.00 in0.0 mm 0.00 in0.0 mm 0.00 in0.0 mm
05:20 AM 40.6°F4.8°C 32.3°F0.2°C 72% Calm Calm -- 30.19 in1022.4 mb 0.00 in0.0 mm 0.00 in0.0 mm 0.00 in0.0 mm
05:30 AM 39.9°F4.4°C 31.6°F-0.2°C 72% Calm Calm -- 30.18 in1022.0 mb 0.00 in0.0 mm 0.00 in0.0 mm 0.00 in0.0 mm
05:40 AM 39.6°F4.2°C 31.3°F-0.4°C 72% Calm Calm -- 30.19 in1022.4 mb 0.00 in0.0 mm 0.00 in0.0 mm 0.00 in0.0 mm
05:50 AM 39.4°F4.1°C 31.4°F-0.3°C 73% Calm Calm -- 30.18 in1022.0 mb 0.00 in0.0 mm 0.00 in0.0 mm 0.00 in0.0 mm
06:00 AM 39.4°F4.1°C 31.4°F-0.3°C 73% Calm Calm -- 30.18 in1022.0 mb 0.00 in0.0 mm 0.00 in0.0 mm 0.00 in0.0 mm
06:10 AM 39.6°F4.2°C 31.6°F-0.2°C 73% 1.0 mph N1.6 kmh N 4.0 mph6.4 kmh 30.18 in1022.0 mb 0.00 in0.0 mm 0.00 in0.0 mm 0.00 in0.0 mm
06:20 AM 40.1°F4.5°C 32.1°F0.1°C 73% 1.8 mph NW2.9 kmh NW 4.0 mph6.4 kmh 30.17 in1021.7 mb 0.00 in0.0 mm 0.00 in0.0 mm 0.00 in0.0 mm
06:30 AM 40.8°F4.9°C 32.1°F0.1°C 71% 0.9 mph NNW1.4 kmh NNW 4.5 mph7.2 kmh 30.17 in1021.7 mb 0.00 in0.0 mm 0.00 in0.0 mm 0.00 in0.0 mm
06:40 AM 40.8°F4.9°C 31.8°F-0.1°C 70% Calm Calm -- 30.17 in1021.7 mb 0.00 in0.0 mm 0.00 in0.0 mm 0.00 in0.0 mm
06:50 AM 41.4°F5.2°C 31.9°F-0.1°C 69% Calm Calm -- 30.17 in1021.7 mb 0.00 in0.0 mm 0.00 in0.0 mm 0.00 in0.0 mm
07:00 AM 40.8°F4.9°C 31.8°F-0.1°C 70% Calm Calm -- 30.17 in1021.7 mb 0.00 in0.0 mm 0.00 in0.0 mm 0.00 in0.0 mm
07:10 AM 40.8°F4.9°C 31.8°F-0.1°C 70% Calm Calm -- 30.17 in1021.7 mb 0.00 in0.0 mm 0.00 in0.0 mm 0.00 in0.0 mm
07:20 AM 40.8°F4.9°C 31.8°F-0.1°C 70% 3.0 mph NW4.8 kmh NW 7.2 mph11.6 kmh 30.17 in1021.7 mb 0.00 in0.0 mm 0.00 in0.0 mm 0.00 in0.0 mm
07:30 AM 41.5°F5.3°C 31.8°F-0.1°C 68% Calm Calm -- 30.17 in1021.7 mb 0.00 in0.0 mm 0.00 in0.0 mm 0.00 in0.0 mm
07:40 AM 41.5°F5.3°C 31.8°F-0.1°C 68% Calm Calm -- 30.17 in1021.7 mb 0.00 in0.0 mm 0.00 in0.0 mm 0.00 in0.0 mm
07:50 AM 40.8°F4.9°C 31.4°F-0.3°C 69% 0.1 mph NNW0.2 kmh NNW 6.3 mph10.1 kmh 30.17 in1021.7 mb 0.00 in0.0 mm 0.00 in0.0 mm 0.00 in0.0 mm
08:00 AM 40.6°F4.8°C 31.6°F-0.2°C 70% 2.3 mph NNW3.7 kmh NNW 6.3 mph10.1 kmh 30.17 in1021.7 mb 0.00 in0.0 mm 0.00 in0.0 mm 0.00 in0.0 mm
08:10 AM 42.6°F5.9°C 31.7°F-0.2°C 65% 0.6 mph N1.0 kmh N 4.3 mph6.9 kmh 30.16 in1021.3 mb 0.00 in0.0 mm 0.00 in0.0 mm 0.00 in0.0 mm
08:20 AM 43.7°F6.5°C 32.3°F0.2°C 64% Calm Calm -- 30.17 in1021.7 mb 0.00 in0.0 mm 0.00 in0.0 mm 0.00 in0.0 mm
08:30 AM 44.8°F7.1°C 32.5°F0.3°C 62% 0.6 mph NW1.0 kmh NW 2.9 mph4.7 kmh 30.17 in1021.7 mb 0.00 in0.0 mm 0.00 in0.0 mm 0.00 in0.0 mm